sensor_id;sensor_type;location;lat;lon;timestamp;temperature;humidity
4399;DHT22;2213;49.720;7.296;2024-01-06T00:01:25;3.20;99.90
4399;DHT22;2213;49.720;7.296;2024-01-06T00:03:54;3.20;99.90
4399;DHT22;2213;49.720;7.296;2024-01-06T00:06:24;3.30;99.90
4399;DHT22;2213;49.720;7.296;2024-01-06T00:08:52;3.30;99.90
4399;DHT22;2213;49.720;7.296;2024-01-06T00:11:23;3.30;99.90
4399;DHT22;2213;49.720;7.296;2024-01-06T00:13:52;3.40;99.90
4399;DHT22;2213;49.720;7.296;2024-01-06T00:16:20;3.40;99.90
4399;DHT22;2213;49.720;7.296;2024-01-06T00:18:51;3.40;99.90
4399;DHT22;2213;49.720;7.296;2024-01-06T00:21:20;3.40;99.90
4399;DHT22;2213;49.720;7.296;2024-01-06T00:23:48;3.40;99.90
4399;DHT22;2213;49.720;7.296;2024-01-06T00:26:17;3.50;99.90
4399;DHT22;2213;49.720;7.296;2024-01-06T00:28:47;3.60;99.90
4399;DHT22;2213;49.720;7.296;2024-01-06T00:31:17;3.50;99.90
4399;DHT22;2213;49.720;7.296;2024-01-06T00:33:46;3.60;99.90
4399;DHT22;2213;49.720;7.296;2024-01-06T00:36:15;3.60;99.90
4399;DHT22;2213;49.720;7.296;2024-01-06T00:38:43;3.60;99.90
4399;DHT22;2213;49.720;7.296;2024-01-06T00:41:13;3.70;99.90
4399;DHT22;2213;49.720;7.296;2024-01-06T00:43:42;3.70;99.90
4399;DHT22;2213;49.720;7.296;2024-01-06T00:46:12;3.70;99.90
4399;DHT22;2213;49.720;7.296;2024-01-06T00:48:41;3.70;99.90
4399;DHT22;2213;49.720;7.296;2024-01-06T00:51:09;3.70;99.90
4399;DHT22;2213;49.720;7.296;2024-01-06T00:53:38;3.80;99.90
4399;DHT22;2213;49.720;7.296;2024-01-06T00:56:06;3.90;99.90
4399;DHT22;2213;49.720;7.296;2024-01-06T00:58:35;3.90;99.90
4399;DHT22;2213;49.720;7.296;2024-01-06T01:01:03;3.80;99.90
4399;DHT22;2213;49.720;7.296;2024-01-06T01:03:33;3.80;99.90
4399;DHT22;2213;49.720;7.296;2024-01-06T01:06:02;3.90;99.90
4399;DHT22;2213;49.720;7.296;2024-01-06T01:08:32;3.90;99.90
4399;DHT22;2213;49.720;7.296;2024-01-06T01:11:00;3.90;99.90
4399;DHT22;2213;49.720;7.296;2024-01-06T01:13:29;3.90;99.90
4399;DHT22;2213;49.720;7.296;2024-01-06T01:15:57;3.90;99.90
4399;DHT22;2213;49.720;7.296;2024-01-06T01:18:26;4.00;99.90
4399;DHT22;2213;49.720;7.296;2024-01-06T01:20:56;4.00;99.90
4399;DHT22;2213;49.720;7.296;2024-01-06T01:23:24;3.90;99.90
4399;DHT22;2213;49.720;7.296;2024-01-06T01:25:54;4.00;99.90
4399;DHT22;2213;49.720;7.296;2024-01-06T01:28:22;4.00;99.90
4399;DHT22;2213;49.720;7.296;2024-01-06T01:30:51;4.00;99.90
4399;DHT22;2213;49.720;7.296;2024-01-06T01:33:20;4.10;99.90
4399;DHT22;2213;49.720;7.296;2024-01-06T01:35:49;4.20;99.90
4399;DHT22;2213;49.720;7.296;2024-01-06T01:38:19;4.20;99.90
4399;DHT22;2213;49.720;7.296;2024-01-06T01:40:47;4.10;99.90
4399;DHT22;2213;49.720;7.296;2024-01-06T01:43:17;4.20;99.90
4399;DHT22;2213;49.720;7.296;2024-01-06T01:45:48;4.10;99.90
4399;DHT22;2213;49.720;7.296;2024-01-06T01:48:20;4.10;99.90
4399;DHT22;2213;49.720;7.296;2024-01-06T01:50:49;4.20;99.90
4399;DHT22;2213;49.720;7.296;2024-01-06T01:53:20;4.20;99.90
4399;DHT22;2213;49.720;7.296;2024-01-06T01:55:51;4.20;99.90
4399;DHT22;2213;49.720;7.296;2024-01-06T01:58:20;4.30;99.90
4399;DHT22;2213;49.720;7.296;2024-01-06T02:00:49;4.20;99.90
4399;DHT22;2213;49.720;7.296;2024-01-06T02:03:18;4.20;99.90
4399;DHT22;2213;49.720;7.296;2024-01-06T02:05:47;4.20;99.90
4399;DHT22;2213;49.720;7.296;2024-01-06T02:08:15;4.20;99.90
4399;DHT22;2213;49.720;7.296;2024-01-06T02:10:45;4.30;99.90
4399;DHT22;2213;49.720;7.296;2024-01-06T02:13:14;4.30;99.90
4399;DHT22;2213;49.720;7.296;2024-01-06T02:15:42;4.30;99.90
4399;DHT22;2213;49.720;7.296;2024-01-06T02:18:11;4.30;99.90
4399;DHT22;2213;49.720;7.296;2024-01-06T02:20:41;4.40;99.90
4399;DHT22;2213;49.720;7.296;2024-01-06T02:23:13;4.40;99.90
4399;DHT22;2213;49.720;7.296;2024-01-06T02:25:41;4.50;99.90
4399;DHT22;2213;49.720;7.296;2024-01-06T02:28:10;4.60;99.90
4399;DHT22;2213;49.720;7.296;2024-01-06T02:30:38;4.70;99.90
4399;DHT22;2213;49.720;7.296;2024-01-06T02:33:07;4.70;99.90
4399;DHT22;2213;49.720;7.296;2024-01-06T02:35:36;4.70;99.90
4399;DHT22;2213;49.720;7.296;2024-01-06T02:38:04;4.60;99.90
4399;DHT22;2213;49.720;7.296;2024-01-06T02:40:34;4.60;99.90
4399;DHT22;2213;49.720;7.296;2024-01-06T02:43:03;4.50;99.90
4399;DHT22;2213;49.720;7.296;2024-01-06T02:45:32;4.60;99.90
4399;DHT22;2213;49.720;7.296;2024-01-06T02:48:01;4.50;99.90
4399;DHT22;2213;49.720;7.296;2024-01-06T02:50:29;4.50;99.90
4399;DHT22;2213;49.720;7.296;2024-01-06T02:52:58;4.50;99.90
4399;DHT22;2213;49.720;7.296;2024-01-06T02:55:26;4.60;99.90
4399;DHT22;2213;49.720;7.296;2024-01-06T02:57:56;4.70;99.90
4399;DHT22;2213;49.720;7.296;2024-01-06T03:00:25;4.60;99.90
4399;DHT22;2213;49.720;7.296;2024-01-06T03:02:53;4.50;99.90
4399;DHT22;2213;49.720;7.296;2024-01-06T03:05:22;4.60;99.90
4399;DHT22;2213;49.720;7.296;2024-01-06T03:07:50;4.60;99.90
4399;DHT22;2213;49.720;7.296;2024-01-06T03:10:19;4.50;99.90
4399;DHT22;2213;49.720;7.296;2024-01-06T03:12:47;4.60;99.90
4399;DHT22;2213;49.720;7.296;2024-01-06T03:15:18;4.60;99.90
4399;DHT22;2213;49.720;7.296;2024-01-06T03:17:46;4.60;99.90
4399;DHT22;2213;49.720;7.296;2024-01-06T03:20:18;4.60;99.90
4399;DHT22;2213;49.720;7.296;2024-01-06T03:22:46;4.70;99.90
4399;DHT22;2213;49.720;7.296;2024-01-06T03:25:15;4.70;99.90
4399;DHT22;2213;49.720;7.296;2024-01-06T03:27:43;4.70;99.90
4399;DHT22;2213;49.720;7.296;2024-01-06T03:30:13;4.70;99.90
4399;DHT22;2213;49.720;7.296;2024-01-06T03:32:43;4.70;99.90
4399;DHT22;2213;49.720;7.296;2024-01-06T03:35:11;4.80;99.90
4399;DHT22;2213;49.720;7.296;2024-01-06T03:37:40;4.70;99.90
4399;DHT22;2213;49.720;7.296;2024-01-06T03:40:09;4.70;99.90
4399;DHT22;2213;49.720;7.296;2024-01-06T03:42:39;4.70;99.90
4399;DHT22;2213;49.720;7.296;2024-01-06T03:45:08;4.70;99.90
4399;DHT22;2213;49.720;7.296;2024-01-06T03:47:37;4.70;99.90
4399;DHT22;2213;49.720;7.296;2024-01-06T03:50:07;4.70;99.90
4399;DHT22;2213;49.720;7.296;2024-01-06T03:52:36;4.60;99.90
4399;DHT22;2213;49.720;7.296;2024-01-06T03:55:06;4.70;99.90
4399;DHT22;2213;49.720;7.296;2024-01-06T03:57:35;4.70;99.90
4399;DHT22;2213;49.720;7.296;2024-01-06T04:00:04;4.80;99.90
4399;DHT22;2213;49.720;7.296;2024-01-06T04:02:34;4.80;99.90
4399;DHT22;2213;49.720;7.296;2024-01-06T04:05:03;4.80;99.90
4399;DHT22;2213;49.720;7.296;2024-01-06T04:07:34;4.80;99.90
4399;DHT22;2213;49.720;7.296;2024-01-06T04:10:03;4.70;99.90
4399;DHT22;2213;49.720;7.296;2024-01-06T04:12:32;4.80;99.90
4399;DHT22;2213;49.720;7.296;2024-01-06T04:15:01;4.70;99.90
4399;DHT22;2213;49.720;7.296;2024-01-06T04:17:30;4.80;99.90
4399;DHT22;2213;49.720;7.296;2024-01-06T04:19:58;4.80;99.90
4399;DHT22;2213;49.720;7.296;2024-01-06T04:22:27;4.90;99.90
4399;DHT22;2213;49.720;7.296;2024-01-06T04:24:57;4.80;99.90
4399;DHT22;2213;49.720;7.296;2024-01-06T04:27:26;4.80;99.90
4399;DHT22;2213;49.720;7.296;2024-01-06T04:29:54;4.90;99.90
4399;DHT22;2213;49.720;7.296;2024-01-06T04:32:22;4.90;99.90
4399;DHT22;2213;49.720;7.296;2024-01-06T04:34:51;4.80;99.90
4399;DHT22;2213;49.720;7.296;2024-01-06T04:37:19;4.90;99.90
4399;DHT22;2213;49.720;7.296;2024-01-06T04:39:49;4.90;99.90
4399;DHT22;2213;49.720;7.296;2024-01-06T04:42:19;4.80;99.90
4399;DHT22;2213;49.720;7.296;2024-01-06T04:44:49;4.90;99.90
4399;DHT22;2213;49.720;7.296;2024-01-06T04:47:18;4.90;99.90
4399;DHT22;2213;49.720;7.296;2024-01-06T04:49:47;4.90;99.90
4399;DHT22;2213;49.720;7.296;2024-01-06T04:52:15;4.90;99.90
4399;DHT22;2213;49.720;7.296;2024-01-06T04:54:44;4.90;99.90
4399;DHT22;2213;49.720;7.296;2024-01-06T04:57:12;4.90;99.90
4399;DHT22;2213;49.720;7.296;2024-01-06T04:59:43;4.90;99.90
4399;DHT22;2213;49.720;7.296;2024-01-06T05:02:11;4.90;99.90
4399;DHT22;2213;49.720;7.296;2024-01-06T05:04:40;4.90;99.90
4399;DHT22;2213;49.720;7.296;2024-01-06T05:07:08;4.70;99.90
4399;DHT22;2213;49.720;7.296;2024-01-06T05:09:37;4.80;99.90
4399;DHT22;2213;49.720;7.296;2024-01-06T05:12:06;4.90;99.90
4399;DHT22;2213;49.720;7.296;2024-01-06T05:14:35;4.90;99.90
4399;DHT22;2213;49.720;7.296;2024-01-06T05:17:05;4.90;99.90
4399;DHT22;2213;49.720;7.296;2024-01-06T05:19:33;5.00;99.90
4399;DHT22;2213;49.720;7.296;2024-01-06T05:22:02;4.90;99.90
4399;DHT22;2213;49.720;7.296;2024-01-06T05:24:31;5.00;99.90
4399;DHT22;2213;49.720;7.296;2024-01-06T05:26:59;5.00;99.90
4399;DHT22;2213;49.720;7.296;2024-01-06T05:29:27;5.00;99.90
4399;DHT22;2213;49.720;7.296;2024-01-06T05:31:55;5.10;99.90
4399;DHT22;2213;49.720;7.296;2024-01-06T05:34:25;5.10;99.90
4399;DHT22;2213;49.720;7.296;2024-01-06T05:36:54;5.10;99.90
4399;DHT22;2213;49.720;7.296;2024-01-06T05:39:23;5.10;99.90
4399;DHT22;2213;49.720;7.296;2024-01-06T05:41:52;5.00;99.90
4399;DHT22;2213;49.720;7.296;2024-01-06T05:44:20;5.00;99.90
4399;DHT22;2213;49.720;7.296;2024-01-06T05:46:49;4.90;99.90
4399;DHT22;2213;49.720;7.296;2024-01-06T05:49:18;4.90;99.90
4399;DHT22;2213;49.720;7.296;2024-01-06T05:51:48;4.90;99.90
4399;DHT22;2213;49.720;7.296;2024-01-06T05:54:17;5.00;99.90
4399;DHT22;2213;49.720;7.296;2024-01-06T05:56:46;5.00;99.90
4399;DHT22;2213;49.720;7.296;2024-01-06T05:59:14;5.00;99.90
4399;DHT22;2213;49.720;7.296;2024-01-06T06:01:43;4.90;99.90
4399;DHT22;2213;49.720;7.296;2024-01-06T06:04:11;4.80;99.90
4399;DHT22;2213;49.720;7.296;2024-01-06T06:06:40;4.90;99.90
4399;DHT22;2213;49.720;7.296;2024-01-06T06:09:10;4.80;99.90
4399;DHT22;2213;49.720;7.296;2024-01-06T06:11:39;4.70;99.90
4399;DHT22;2213;49.720;7.296;2024-01-06T06:14:08;4.80;99.90
4399;DHT22;2213;49.720;7.296;2024-01-06T06:16:36;4.90;99.90
4399;DHT22;2213;49.720;7.296;2024-01-06T06:19:05;4.90;99.90
4399;DHT22;2213;49.720;7.296;2024-01-06T06:21:34;4.90;99.90
4399;DHT22;2213;49.720;7.296;2024-01-06T06:24:04;5.00;99.90
4399;DHT22;2213;49.720;7.296;2024-01-06T06:26:34;5.00;99.90
4399;DHT22;2213;49.720;7.296;2024-01-06T06:29:06;5.00;99.90
4399;DHT22;2213;49.720;7.296;2024-01-06T06:31:35;5.00;99.90
4399;DHT22;2213;49.720;7.296;2024-01-06T06:34:04;5.00;99.90
4399;DHT22;2213;49.720;7.296;2024-01-06T06:36:35;5.10;99.90
4399;DHT22;2213;49.720;7.296;2024-01-06T06:39:05;5.10;99.90
4399;DHT22;2213;49.720;7.296;2024-01-06T06:41:35;5.10;99.90
4399;DHT22;2213;49.720;7.296;2024-01-06T06:44:04;5.00;99.90
4399;DHT22;2213;49.720;7.296;2024-01-06T06:46:32;5.00;99.90
4399;DHT22;2213;49.720;7.296;2024-01-06T06:49:01;5.00;99.90
4399;DHT22;2213;49.720;7.296;2024-01-06T06:51:30;5.00;99.90
4399;DHT22;2213;49.720;7.296;2024-01-06T06:53:59;5.00;99.90
4399;DHT22;2213;49.720;7.296;2024-01-06T06:56:27;5.10;99.90
4399;DHT22;2213;49.720;7.296;2024-01-06T06:58:57;5.00;99.90
4399;DHT22;2213;49.720;7.296;2024-01-06T07:01:26;5.00;99.90
4399;DHT22;2213;49.720;7.296;2024-01-06T07:03:56;5.00;99.90
4399;DHT22;2213;49.720;7.296;2024-01-06T07:06:24;5.00;99.90
4399;DHT22;2213;49.720;7.296;2024-01-06T07:08:53;5.00;99.90
4399;DHT22;2213;49.720;7.296;2024-01-06T07:11:21;5.00;99.90
4399;DHT22;2213;49.720;7.296;2024-01-06T07:13:51;5.10;99.90
4399;DHT22;2213;49.720;7.296;2024-01-06T07:16:22;5.00;99.90
4399;DHT22;2213;49.720;7.296;2024-01-06T07:18:51;5.00;99.90
4399;DHT22;2213;49.720;7.296;2024-01-06T07:21:20;5.00;99.90
4399;DHT22;2213;49.720;7.296;2024-01-06T07:23:48;5.10;99.90
4399;DHT22;2213;49.720;7.296;2024-01-06T07:26:17;5.10;99.90
4399;DHT22;2213;49.720;7.296;2024-01-06T07:28:45;5.20;99.90
4399;DHT22;2213;49.720;7.296;2024-01-06T07:31:14;5.20;99.90
4399;DHT22;2213;49.720;7.296;2024-01-06T07:33:46;5.20;99.90
4399;DHT22;2213;49.720;7.296;2024-01-06T07:36:14;5.20;99.90
4399;DHT22;2213;49.720;7.296;2024-01-06T07:38:44;5.20;99.90
4399;DHT22;2213;49.720;7.296;2024-01-06T07:41:13;5.10;99.90
4399;DHT22;2213;49.720;7.296;2024-01-06T07:43:42;5.20;99.90
4399;DHT22;2213;49.720;7.296;2024-01-06T07:46:10;5.20;99.90
4399;DHT22;2213;49.720;7.296;2024-01-06T07:48:39;5.20;99.90
4399;DHT22;2213;49.720;7.296;2024-01-06T07:51:09;5.20;99.90
4399;DHT22;2213;49.720;7.296;2024-01-06T07:53:38;5.00;99.90
4399;DHT22;2213;49.720;7.296;2024-01-06T07:56:06;5.20;99.90
4399;DHT22;2213;49.720;7.296;2024-01-06T07:58:35;5.20;99.90
4399;DHT22;2213;49.720;7.296;2024-01-06T08:01:04;5.30;99.90
4399;DHT22;2213;49.720;7.296;2024-01-06T08:03:33;5.40;99.90
4399;DHT22;2213;49.720;7.296;2024-01-06T08:06:02;5.30;99.90
4399;DHT22;2213;49.720;7.296;2024-01-06T08:08:32;5.30;99.90
4399;DHT22;2213;49.720;7.296;2024-01-06T08:11:02;5.30;99.90
4399;DHT22;2213;49.720;7.296;2024-01-06T08:13:31;5.40;99.90
4399;DHT22;2213;49.720;7.296;2024-01-06T08:16:00;5.40;99.90
4399;DHT22;2213;49.720;7.296;2024-01-06T08:18:29;5.40;99.90
4399;DHT22;2213;49.720;7.296;2024-01-06T08:20:58;5.40;99.90
4399;DHT22;2213;49.720;7.296;2024-01-06T08:23:26;5.50;99.90
4399;DHT22;2213;49.720;7.296;2024-01-06T08:25:56;5.50;99.90
4399;DHT22;2213;49.720;7.296;2024-01-06T08:28:25;5.50;99.90
4399;DHT22;2213;49.720;7.296;2024-01-06T08:30:54;5.50;99.90
4399;DHT22;2213;49.720;7.296;2024-01-06T08:33:23;5.50;99.90
4399;DHT22;2213;49.720;7.296;2024-01-06T08:35:52;5.40;99.90
4399;DHT22;2213;49.720;7.296;2024-01-06T08:38:20;5.50;99.90
4399;DHT22;2213;49.720;7.296;2024-01-06T08:40:50;5.50;99.90
4399;DHT22;2213;49.720;7.296;2024-01-06T08:43:22;5.50;99.90
4399;DHT22;2213;49.720;7.296;2024-01-06T08:45:50;5.60;99.90
4399;DHT22;2213;49.720;7.296;2024-01-06T08:48:19;5.40;99.90
4399;DHT22;2213;49.720;7.296;2024-01-06T08:50:49;5.60;99.90
4399;DHT22;2213;49.720;7.296;2024-01-06T08:53:18;5.60;99.90
4399;DHT22;2213;49.720;7.296;2024-01-06T08:55:46;5.60;99.90
4399;DHT22;2213;49.720;7.296;2024-01-06T08:58:15;5.60;99.90
4399;DHT22;2213;49.720;7.296;2024-01-06T09:00:46;5.50;99.90
4399;DHT22;2213;49.720;7.296;2024-01-06T09:03:15;5.50;99.90
4399;DHT22;2213;49.720;7.296;2024-01-06T09:05:44;5.50;99.90
4399;DHT22;2213;49.720;7.296;2024-01-06T09:08:13;5.50;99.90
4399;DHT22;2213;49.720;7.296;2024-01-06T09:10:41;5.50;99.90
4399;DHT22;2213;49.720;7.296;2024-01-06T09:13:11;5.60;99.90
4399;DHT22;2213;49.720;7.296;2024-01-06T09:15:39;5.60;99.90
4399;DHT22;2213;49.720;7.296;2024-01-06T09:18:10;5.60;99.90
4399;DHT22;2213;49.720;7.296;2024-01-06T09:20:40;5.70;99.90
4399;DHT22;2213;49.720;7.296;2024-01-06T09:23:09;5.70;99.90
4399;DHT22;2213;49.720;7.296;2024-01-06T09:25:38;5.70;99.90
4399;DHT22;2213;49.720;7.296;2024-01-06T09:28:07;5.70;99.90
4399;DHT22;2213;49.720;7.296;2024-01-06T09:30:38;5.70;99.90
4399;DHT22;2213;49.720;7.296;2024-01-06T09:33:07;5.70;99.90
4399;DHT22;2213;49.720;7.296;2024-01-06T09:35:37;5.80;99.90
4399;DHT22;2213;49.720;7.296;2024-01-06T09:38:05;5.80;99.90
4399;DHT22;2213;49.720;7.296;2024-01-06T09:40:34;5.80;99.90
4399;DHT22;2213;49.720;7.296;2024-01-06T09:43:09;5.80;99.90
4399;DHT22;2213;49.720;7.296;2024-01-06T09:45:38;5.80;99.90
4399;DHT22;2213;49.720;7.296;2024-01-06T09:48:11;5.80;99.90
4399;DHT22;2213;49.720;7.296;2024-01-06T09:50:44;5.80;99.90
4399;DHT22;2213;49.720;7.296;2024-01-06T09:53:13;5.80;99.90
4399;DHT22;2213;49.720;7.296;2024-01-06T09:55:42;5.90;99.90
4399;DHT22;2213;49.720;7.296;2024-01-06T09:58:12;5.90;99.90
4399;DHT22;2213;49.720;7.296;2024-01-06T10:00:41;5.90;99.90
4399;DHT22;2213;49.720;7.296;2024-01-06T10:03:10;5.90;99.90
4399;DHT22;2213;49.720;7.296;2024-01-06T10:05:40;5.90;99.90
4399;DHT22;2213;49.720;7.296;2024-01-06T10:08:10;5.90;99.90
4399;DHT22;2213;49.720;7.296;2024-01-06T10:10:39;5.90;99.90
4399;DHT22;2213;49.720;7.296;2024-01-06T10:13:07;6.00;99.90
4399;DHT22;2213;49.720;7.296;2024-01-06T10:15:36;6.00;99.90
4399;DHT22;2213;49.720;7.296;2024-01-06T10:18:05;6.00;99.90
4399;DHT22;2213;49.720;7.296;2024-01-06T10:20:35;6.00;99.90
4399;DHT22;2213;49.720;7.296;2024-01-06T10:23:05;6.00;99.90
4399;DHT22;2213;49.720;7.296;2024-01-06T10:25:35;6.00;99.90
4399;DHT22;2213;49.720;7.296;2024-01-06T10:28:05;6.10;99.90
4399;DHT22;2213;49.720;7.296;2024-01-06T10:30:33;6.10;99.90
4399;DHT22;2213;49.720;7.296;2024-01-06T10:33:08;6.20;99.90
4399;DHT22;2213;49.720;7.296;2024-01-06T10:35:39;6.20;99.90
4399;DHT22;2213;49.720;7.296;2024-01-06T10:38:07;6.20;99.90
4399;DHT22;2213;49.720;7.296;2024-01-06T10:40:38;6.20;99.90
4399;DHT22;2213;49.720;7.296;2024-01-06T10:43:07;6.20;99.90
4399;DHT22;2213;49.720;7.296;2024-01-06T10:45:37;6.20;99.90
4399;DHT22;2213;49.720;7.296;2024-01-06T10:48:06;6.20;99.90
4399;DHT22;2213;49.720;7.296;2024-01-06T10:50:36;6.20;99.90
4399;DHT22;2213;49.720;7.296;2024-01-06T10:53:05;6.30;99.90
4399;DHT22;2213;49.720;7.296;2024-01-06T10:55:35;6.20;99.90
4399;DHT22;2213;49.720;7.296;2024-01-06T10:58:08;6.20;99.90
4399;DHT22;2213;49.720;7.296;2024-01-06T11:00:38;6.10;99.90
4399;DHT22;2213;49.720;7.296;2024-01-06T11:03:06;6.10;99.90
4399;DHT22;2213;49.720;7.296;2024-01-06T11:05:37;6.20;99.90
4399;DHT22;2213;49.720;7.296;2024-01-06T11:08:07;6.20;99.90
4399;DHT22;2213;49.720;7.296;2024-01-06T11:10:39;6.20;99.90
4399;DHT22;2213;49.720;7.296;2024-01-06T11:13:09;6.30;99.90
4399;DHT22;2213;49.720;7.296;2024-01-06T11:15:44;6.40;99.90
4399;DHT22;2213;49.720;7.296;2024-01-06T11:18:35;6.40;99.90
4399;DHT22;2213;49.720;7.296;2024-01-06T11:21:16;6.40;99.90
4399;DHT22;2213;49.720;7.296;2024-01-06T11:24:18;6.60;99.90
4399;DHT22;2213;49.720;7.296;2024-01-06T11:26:55;6.50;99.90
4399;DHT22;2213;49.720;7.296;2024-01-06T11:29:24;6.60;99.90
4399;DHT22;2213;49.720;7.296;2024-01-06T11:32:25;6.50;99.90
4399;DHT22;2213;49.720;7.296;2024-01-06T11:35:05;6.60;99.90
4399;DHT22;2213;49.720;7.296;2024-01-06T11:37:37;6.40;99.90
4399;DHT22;2213;49.720;7.296;2024-01-06T11:40:24;6.50;99.90
4399;DHT22;2213;49.720;7.296;2024-01-06T11:43:00;6.70;99.90
4399;DHT22;2213;49.720;7.296;2024-01-06T11:45:30;6.70;99.90
4399;DHT22;2213;49.720;7.296;2024-01-06T11:48:01;6.70;99.90
4399;DHT22;2213;49.720;7.296;2024-01-06T11:50:32;6.80;99.90
4399;DHT22;2213;49.720;7.296;2024-01-06T11:53:02;6.70;99.90
4399;DHT22;2213;49.720;7.296;2024-01-06T11:55:32;6.80;99.90
4399;DHT22;2213;49.720;7.296;2024-01-06T11:58:03;6.80;99.90
4399;DHT22;2213;49.720;7.296;2024-01-06T12:00:33;6.80;99.90
4399;DHT22;2213;49.720;7.296;2024-01-06T12:03:04;6.80;99.90
4399;DHT22;2213;49.720;7.296;2024-01-06T12:05:32;6.70;99.90
4399;DHT22;2213;49.720;7.296;2024-01-06T12:08:02;6.60;99.90
4399;DHT22;2213;49.720;7.296;2024-01-06T12:10:35;6.70;99.90
4399;DHT22;2213;49.720;7.296;2024-01-06T12:13:06;6.60;99.90
4399;DHT22;2213;49.720;7.296;2024-01-06T12:15:38;6.60;99.90
4399;DHT22;2213;49.720;7.296;2024-01-06T12:18:07;6.70;99.90
4399;DHT22;2213;49.720;7.296;2024-01-06T12:20:36;6.70;99.90
4399;DHT22;2213;49.720;7.296;2024-01-06T12:23:05;6.70;99.90
4399;DHT22;2213;49.720;7.296;2024-01-06T12:25:35;6.60;99.90
4399;DHT22;2213;49.720;7.296;2024-01-06T12:28:08;6.60;99.90
4399;DHT22;2213;49.720;7.296;2024-01-06T12:30:38;6.70;99.90
4399;DHT22;2213;49.720;7.296;2024-01-06T12:33:08;6.90;99.90
4399;DHT22;2213;49.720;7.296;2024-01-06T12:35:38;6.80;99.90
4399;DHT22;2213;49.720;7.296;2024-01-06T12:38:08;6.90;99.90
4399;DHT22;2213;49.720;7.296;2024-01-06T12:40:38;6.80;99.90
4399;DHT22;2213;49.720;7.296;2024-01-06T12:43:09;6.80;99.90
4399;DHT22;2213;49.720;7.296;2024-01-06T12:45:38;6.70;99.90
4399;DHT22;2213;49.720;7.296;2024-01-06T12:48:07;6.70;99.90
4399;DHT22;2213;49.720;7.296;2024-01-06T12:50:36;6.70;99.90
4399;DHT22;2213;49.720;7.296;2024-01-06T12:53:04;6.60;99.90
4399;DHT22;2213;49.720;7.296;2024-01-06T12:55:33;6.60;99.90
4399;DHT22;2213;49.720;7.296;2024-01-06T12:58:02;6.70;99.90
4399;DHT22;2213;49.720;7.296;2024-01-06T13:00:32;6.60;99.90
4399;DHT22;2213;49.720;7.296;2024-01-06T13:03:03;6.60;99.90
4399;DHT22;2213;49.720;7.296;2024-01-06T13:05:33;6.60;99.90
4399;DHT22;2213;49.720;7.296;2024-01-06T13:08:01;6.70;99.90
4399;DHT22;2213;49.720;7.296;2024-01-06T13:10:31;6.60;99.90
4399;DHT22;2213;49.720;7.296;2024-01-06T13:13:01;6.60;99.90
4399;DHT22;2213;49.720;7.296;2024-01-06T13:15:31;6.60;99.90
4399;DHT22;2213;49.720;7.296;2024-01-06T13:18:00;6.60;99.90
4399;DHT22;2213;49.720;7.296;2024-01-06T13:20:29;6.60;99.90
4399;DHT22;2213;49.720;7.296;2024-01-06T13:22:57;6.60;99.90
4399;DHT22;2213;49.720;7.296;2024-01-06T13:25:26;6.60;99.90
4399;DHT22;2213;49.720;7.296;2024-01-06T13:27:55;6.60;99.90
4399;DHT22;2213;49.720;7.296;2024-01-06T13:30:23;6.50;99.90
4399;DHT22;2213;49.720;7.296;2024-01-06T13:32:54;6.60;99.90
4399;DHT22;2213;49.720;7.296;2024-01-06T13:35:23;6.60;99.90
4399;DHT22;2213;49.720;7.296;2024-01-06T13:37:52;6.70;99.90
4399;DHT22;2213;49.720;7.296;2024-01-06T13:40:22;6.60;99.90
4399;DHT22;2213;49.720;7.296;2024-01-06T13:42:51;6.60;99.90
4399;DHT22;2213;49.720;7.296;2024-01-06T13:45:21;6.70;99.90
4399;DHT22;2213;49.720;7.296;2024-01-06T13:47:50;6.60;99.90
4399;DHT22;2213;49.720;7.296;2024-01-06T13:50:20;6.70;99.90
4399;DHT22;2213;49.720;7.296;2024-01-06T13:52:49;6.80;99.90
4399;DHT22;2213;49.720;7.296;2024-01-06T13:55:18;6.70;99.90
4399;DHT22;2213;49.720;7.296;2024-01-06T13:57:48;6.70;99.90
4399;DHT22;2213;49.720;7.296;2024-01-06T14:00:17;6.70;99.90
4399;DHT22;2213;49.720;7.296;2024-01-06T14:02:47;6.70;99.90
4399;DHT22;2213;49.720;7.296;2024-01-06T14:05:16;6.70;99.90
4399;DHT22;2213;49.720;7.296;2024-01-06T14:07:48;6.60;99.90
4399;DHT22;2213;49.720;7.296;2024-01-06T14:10:18;6.60;99.90
4399;DHT22;2213;49.720;7.296;2024-01-06T14:12:47;6.70;99.90
4399;DHT22;2213;49.720;7.296;2024-01-06T14:15:16;6.70;99.90
4399;DHT22;2213;49.720;7.296;2024-01-06T14:17:44;6.70;99.90
4399;DHT22;2213;49.720;7.296;2024-01-06T14:20:17;6.60;99.90
4399;DHT22;2213;49.720;7.296;2024-01-06T14:22:48;6.60;99.90
4399;DHT22;2213;49.720;7.296;2024-01-06T14:25:17;6.60;99.90
4399;DHT22;2213;49.720;7.296;2024-01-06T14:27:46;6.70;99.90
4399;DHT22;2213;49.720;7.296;2024-01-06T14:30:15;6.70;99.90
4399;DHT22;2213;49.720;7.296;2024-01-06T14:32:44;6.60;99.90
4399;DHT22;2213;49.720;7.296;2024-01-06T14:35:12;6.60;99.90
4399;DHT22;2213;49.720;7.296;2024-01-06T14:37:43;6.70;99.90
4399;DHT22;2213;49.720;7.296;2024-01-06T14:40:14;6.70;99.90
4399;DHT22;2213;49.720;7.296;2024-01-06T14:42:43;6.70;99.90
4399;DHT22;2213;49.720;7.296;2024-01-06T14:45:12;6.60;99.90
4399;DHT22;2213;49.720;7.296;2024-01-06T14:47:41;6.60;99.90
4399;DHT22;2213;49.720;7.296;2024-01-06T14:50:17;6.60;99.90
4399;DHT22;2213;49.720;7.296;2024-01-06T14:52:46;6.50;99.90
4399;DHT22;2213;49.720;7.296;2024-01-06T14:55:18;6.50;99.90
4399;DHT22;2213;49.720;7.296;2024-01-06T14:57:46;6.50;99.90
4399;DHT22;2213;49.720;7.296;2024-01-06T15:00:15;6.50;99.90
4399;DHT22;2213;49.720;7.296;2024-01-06T15:02:44;6.40;99.90
4399;DHT22;2213;49.720;7.296;2024-01-06T15:05:13;6.40;99.90
4399;DHT22;2213;49.720;7.296;2024-01-06T15:07:42;6.40;99.90
4399;DHT22;2213;49.720;7.296;2024-01-06T15:10:12;6.40;99.90
4399;DHT22;2213;49.720;7.296;2024-01-06T15:12:44;6.30;99.90
4399;DHT22;2213;49.720;7.296;2024-01-06T15:15:13;6.30;99.90
4399;DHT22;2213;49.720;7.296;2024-01-06T15:17:42;6.20;99.90
4399;DHT22;2213;49.720;7.296;2024-01-06T15:20:12;6.30;99.90
4399;DHT22;2213;49.720;7.296;2024-01-06T15:22:40;6.20;99.90
4399;DHT22;2213;49.720;7.296;2024-01-06T15:25:09;6.20;99.90
4399;DHT22;2213;49.720;7.296;2024-01-06T15:27:38;6.10;99.90
4399;DHT22;2213;49.720;7.296;2024-01-06T15:30:08;6.10;99.90
4399;DHT22;2213;49.720;7.296;2024-01-06T15:32:40;6.00;99.90
4399;DHT22;2213;49.720;7.296;2024-01-06T15:35:10;5.90;99.90
4399;DHT22;2213;49.720;7.296;2024-01-06T15:37:39;5.90;99.90
4399;DHT22;2213;49.720;7.296;2024-01-06T15:40:08;5.90;99.90
4399;DHT22;2213;49.720;7.296;2024-01-06T15:42:37;5.80;99.90
4399;DHT22;2213;49.720;7.296;2024-01-06T15:45:09;5.80;99.90
4399;DHT22;2213;49.720;7.296;2024-01-06T15:47:38;5.80;99.90
4399;DHT22;2213;49.720;7.296;2024-01-06T15:50:07;5.80;99.90
4399;DHT22;2213;49.720;7.296;2024-01-06T15:52:36;5.80;99.90
4399;DHT22;2213;49.720;7.296;2024-01-06T15:55:05;5.80;99.90
4399;DHT22;2213;49.720;7.296;2024-01-06T15:57:35;5.80;99.90
4399;DHT22;2213;49.720;7.296;2024-01-06T16:00:05;5.70;99.90
4399;DHT22;2213;49.720;7.296;2024-01-06T16:02:36;5.80;99.90
4399;DHT22;2213;49.720;7.296;2024-01-06T16:05:06;5.80;99.90
4399;DHT22;2213;49.720;7.296;2024-01-06T16:07:35;5.70;99.90
4399;DHT22;2213;49.720;7.296;2024-01-06T16:10:05;5.90;99.90
4399;DHT22;2213;49.720;7.296;2024-01-06T16:12:34;5.90;99.90
4399;DHT22;2213;49.720;7.296;2024-01-06T16:15:03;5.90;99.90
4399;DHT22;2213;49.720;7.296;2024-01-06T16:17:32;5.80;99.90
4399;DHT22;2213;49.720;7.296;2024-01-06T16:20:03;5.70;99.90
4399;DHT22;2213;49.720;7.296;2024-01-06T16:22:33;5.80;99.90
4399;DHT22;2213;49.720;7.296;2024-01-06T16:25:02;5.80;99.90
4399;DHT22;2213;49.720;7.296;2024-01-06T16:27:31;5.80;99.90
4399;DHT22;2213;49.720;7.296;2024-01-06T16:29:59;5.70;99.90
4399;DHT22;2213;49.720;7.296;2024-01-06T16:32:28;5.70;99.90